Tiempo atmosférico en la estación meteorológica de Guijo De Granadilla, Cáceres (393 m.)



Fecha
DESCASC
Temp. máxima en grados centígrados (hora)
DESCASC
Temp. mínima en grados centígrados (hora)
DESCASC
Temp. media en grados centígrados
DESCASC
Racha de viento máxima en m/sg (hora)
DESCASC
Velocidad máxima media en intervalos de 10 minutos(hora)
DESCASC
Precipitaciones diarias en mm
DESCASC
Precipitaciones de 00:00 a 06:00 en mm
DESCASC
Precipitaciones de 06:00 a 12:00 en mm
DESCASC
Precipitaciones de 12:00 a 18:00 en mm
DESCASC
Precipitaciones de 18:00 a 24:00 en mm
DESCASC
18-04-2019 17 (14:10) 9.6 (07:30) 13.3 8.33 (18:00) 4.44 (01:00) 4 3.4 0 0.6 0
17-04-2019 20.2 (15:10) 10.6 (20:20) 15.4 14.44 (15:50) 7.22 (15:30) 14.6 0 0 1.2 13.4
16-04-2019 22 (18:00) 6.2 (00:00) 14.1 10.56 (16:10) 5.28 (13:30) 0 0 0 0 0
15-04-2019 21 (15:10) 10.5 (00:00) 15.8 12.78 (15:50) 7.5 (15:50) 0.4 0 0 0.4 0
14-04-2019 24.1 (18:10) 9.1 (00:00) 16.6 7.22 (17:40) 3.61 (17:50) 0 0 0 0 0
13-04-2019 23.3 (17:40) 7 (00:00) 15.1 8.61 (19:30) 4.72 (19:30) 0 0 0 0 0
12-04-2019 21.4 (16:50) 5.8 (00:00) 13.6 5.83 (14:50) 3.61 (00:40) 0 0 0 0 0
11-04-2019 18.3 (16:30) 5.8 (00:00) 12 10.28 (15:50) 5 (12:50) 0 0 0 0 0
10-04-2019 17.7 (17:20) 7.5 (00:00) 12.6 12.22 (19:40) 7.5 (19:40) 0.6 0 0 0 0.6
09-04-2019 14.8 (18:20) 6.3 (00:00) 10.6 10 (19:00) 5 (19:40) 3.8 0 2.6 1.2 0
08-04-2019 17.2 (16:30) 8.1 (00:00) 12.7 11.39 (18:20) 6.94 (16:40) 4 3.6 0 0.2 0.2
07-04-2019 11.9 (14:50) 6.2 (00:00) 9 6.67 (16:20) 3.89 (16:20) 3.6 0 0.6 0.4 2.6
06-04-2019 11.8 (16:30) 3.3 (00:00) 7.6 13.06 (16:40) 7.78 (16:40) 3.6 0 2.2 1.4 0
05-04-2019 12 (17:40) 4.3 (00:00) 8.2 11.39 (13:50) 6.39 (18:10) 9 3.4 2.2 0.2 3.2
04-04-2019 16.1 (17:20) 1.4 (00:00) 8.8 11.67 (21:00) 6.39 (21:00) 1 0 0 0 1
03-04-2019 15.9 (15:40) 6.9 (00:00) 11.4 14.17 (19:40) 6.11 (16:30) 0 0 0 0 0
02-04-2019 21.7 (18:10) 7.2 (00:00) 14.5 8.61 (18:50) 5.28 (18:50) 0.4 0 0 0.4 0
01-04-2019 19.4 (16:10) 6.3 (00:00) 12.8 6.67 (16:30) 3.61 (16:30) 2.2 0 0 0 2.2
31-03-2019 21.3 (16:30) 8 (00:00) 14.6 7.5 (15:40) 3.89 (15:40) 0 0 0 0 0
30-03-2019 21.4 (16:30) 3 (00:00) 12.2 6.39 (16:10) 3.89 (17:50) 0 0 0 0 0
29-03-2019 21 (15:50) 3.3 (00:00) 12.1 10 (17:00) 5 (16:50) 0 0 0 0 0
28-03-2019 21.8 (15:20) 7.4 (00:00) 14.6 6.67 (06:30) 3.89 (08:00) 0 0 0 0 0
27-03-2019 21.2 (16:00) 6.7 (00:00) 14 7.22 (01:10) 3.89 (00:30) 0 0 0 0 0
26-03-2019 23.2 (18:20) 6.4 (00:00) 14.8 9.72 (01:10) 5.83 (00:10) 0 0 0 0 0
25-03-2019 23.2 (15:20) 10 (00:00) 16.6 11.67 (21:40) 6.67 (21:00) 0 0 0 0 0
24-03-2019 23.3 (14:10) 8.1 (00:00) 15.7 11.11 (01:40) 6.39 (15:30) 0 0 0 0 0
23-03-2019 22.8 (16:20) 4.9 (00:00) 13.8 10.83 (23:50) 5.56 (23:50) 0 0 0 0 0
22-03-2019 19.2 (15:50) 3.6 (00:00) 11.4 8.06 (15:40) 3.61 (15:40) 0 0 0 0 0
21-03-2019 18.5 (17:30) 5.8 (00:00) 12.2 6.39 (16:30) 3.61 (00:10) 0 0 0 0 0

Gráficas

Temp. máximas Temp. mínimas Temp. medias Precipitaciones Rachas de viento máximas Velocidades máximas media en intervalos de 10 minutos

Datos horarios

Fecha y hora oficial Temperatura (ºC) Velocidad del viento (km/h) Dirección del viento Racha (km/h) Dirección de racha Precipitación (mm) Presión (hPa) Tendencia (hPa) Humedad (%)
2019-04-19 23:00:00 11.8 6 Sudoeste 10 Sudoeste 0 -- -- 85
2019-04-19 22:00:00 12.7 5 Sudoeste 13 Sudoeste 0 -- -- 79
2019-04-19 21:00:00 13.5 6 Oeste 14 Sur 0 -- -- 77
2019-04-19 20:00:00 14.7 8 Sur 17 Sudoeste 0 -- -- 73
2019-04-19 19:00:00 15.9 9 Sur 15 Sur 0 -- -- 66
2019-04-19 18:00:00 15.5 2 Norte 8 Este 0 -- -- 68
2019-04-19 17:00:00 14.8 6 Nordeste 15 Norte 0.2 -- -- 73
2019-04-19 16:00:00 14.7 11 Norte 19 Norte 0.2 -- -- 69
2019-04-19 15:00:00 14.3 9 Sudeste 14 Nordeste 1 -- -- 79
2019-04-19 14:00:00 16.2 4 Noroeste 12 Sur 0 -- -- 61
2019-04-19 13:00:00 15.6 3 Sudoeste 10 Sur 0 -- -- 67
2019-04-19 12:00:00 14.1 4 Sudoeste 8 Sudoeste 0 -- -- 69
2019-04-19 11:00:00 13 4 Sudoeste 12 Sudoeste 0 -- -- 78
2019-04-19 10:00:00 11.1 4 Este 8 Este 0 -- -- 85
2019-04-19 09:00:00 10.4 0 Calma 7 Noroeste 0 -- -- 90
2019-04-19 08:00:00 8.8 0 Calma 6 Sudoeste 0 -- -- 96
2019-04-19 07:00:00 8.5 4 Sudoeste 6 Sudoeste 0 -- -- 96
2019-04-19 06:00:00 8.5 5 Sur 8 Sur 0 -- -- 94
2019-04-19 05:00:00 9.1 3 Sur 5 Sudoeste 0 -- -- 93
2019-04-19 04:00:00 9.6 0 Calma 6 Sudoeste 0 -- -- 92
2019-04-19 03:00:00 10.3 2 Sur 10 Nordeste 0 -- -- 88
2019-04-19 02:00:00 10.6 4 Norte 9 Norte 0 -- -- 85
2019-04-19 01:00:00 10.1 4 Noroeste 10 Nordeste 0 -- -- 89
2019-04-19 00:00:00 10.5 5 Norte 9 Norte 0 -- -- 88
2019-04-18 23:00:00 10.5 5 Norte 12 Norte 0 -- -- 85
2019-04-18 22:00:00 10.3 5 Norte 16 Noroeste 0 -- -- 87
2019-04-18 21:00:00 11.3 3 Norte 6 Norte 0 -- -- 83
2019-04-18 20:00:00 12.6 2 Nordeste 19 Norte 0 -- -- 73
2019-04-18 19:00:00 11.9 14 Noroeste 25 Nordeste 0 -- -- 74
2019-04-18 18:00:00 14 15 Norte 30 Nordeste 0 -- -- 70
2019-04-18 17:00:00 15.6 2 Sudoeste 10 Sudoeste 0 -- -- 69
2019-04-18 16:00:00 12.7 7 Sudoeste 26 Sur 0.6 -- -- 79
2019-04-18 15:00:00 15.6 5 Noroeste 10 Norte 0 -- -- 65
2019-04-18 14:00:00 16.8 5 Este 13 Nordeste 0 -- -- 61
2019-04-18 13:00:00 14.8 4 Este 13 Sur 0 -- -- 69
2019-04-18 12:00:00 13.4 3 Sudeste 12 Este 0 -- -- 78
2019-04-18 11:00:00 12.2 9 Este 13 Este 0 -- -- 87
2019-04-18 10:00:00 11.9 4 Sudeste 10 Sudeste 0 -- -- 88
2019-04-18 09:00:00 10.3 5 Sudoeste 9 Sudoeste 0 -- -- 95
2019-04-18 08:00:00 9.7 4 Sudoeste 6 Sudoeste 0 -- -- 95
2019-04-18 07:00:00 10 0 Calma 7 Sudeste 0 -- -- 94
2019-04-18 06:00:00 10.1 4 Sur 9 Sudeste 0 -- -- 94
2019-04-18 05:00:00 9.9 5 Sudeste 11 Sudeste 0 -- -- 95
2019-04-18 04:00:00 10.1 2 Sudoeste 13 Sur 0 -- -- 94
2019-04-18 03:00:00 10.3 7 Sur 24 Sur 0.4 -- -- 94
2019-04-18 02:00:00 10.3 13 Sur 22 Sur 0.6 -- -- 95
2019-04-18 01:00:00 10.5 16 Sudoeste 27 Sur 2.4 -- -- 94
2019-04-18 00:00:00 10.6 12 Sur 23 Sur 4.4 -- -- 94
2019-04-17 23:00:00 10.8 9 Sur 22 Sur 1.2 -- -- 93
2019-04-17 22:00:00 10.8 8 Sudeste 16 Sudeste 1.6 -- -- 94
2019-04-17 21:00:00 10.6 0 Calma 11 Sur 2.4 -- -- 93
2019-04-17 20:00:00 10.8 9 Sudoeste 27 Sudoeste 3 -- -- 92
2019-04-17 19:00:00 12 18 Sudoeste 37 Sudoeste 0.8 -- -- 87
2019-04-17 18:00:00 -- 15 Sur 35 Sudeste 1.2 -- -- --
2019-04-17 17:00:00 18.8 19 Sudeste 38 Sudeste 0 -- -- 46
2019-04-17 16:00:00 19.7 22 Sudeste 52 Sudeste 0 -- -- 46
2019-04-17 15:00:00 19.7 22 Sur 38 Sudeste 0 -- -- 48
2019-04-17 14:00:00 18.5 19 Sur 40 Sur 0 -- -- 47
2019-04-17 13:00:00 18 22 Sur 41 Sur 0 -- -- 49
2019-04-17 12:00:00 17.6 20 Sur 39 Sur 0 -- -- 49
2019-04-17 11:00:00 16.5 18 Sur 35 Sur 0 -- -- 52
2019-04-17 10:00:00 15.6 15 Sur 30 Sur 0 -- -- 58
2019-04-17 09:00:00 13.9 12 Sudoeste 22 Sudoeste 0 -- -- 63
2019-04-17 08:00:00 11.7 8 Sudoeste 15 Sudoeste 0 -- -- 69
2019-04-17 07:00:00 11.3 10 Oeste 17 Sudoeste 0 -- -- 67
2019-04-17 06:00:00 12 11 Oeste 19 Oeste 0 -- -- 64
2019-04-17 05:00:00 13.2 5 Sudoeste 18 Sur 0 -- -- 59
2019-04-17 04:00:00 14.6 11 Sur 21 Sur 0 -- -- 54
2019-04-17 03:00:00 14.7 9 Oeste 19 Sur 0 -- -- 52
2019-04-17 02:00:00 16.9 12 Sur 25 Sur 0 -- -- 45
2019-04-17 01:00:00 16.7 12 Sudeste 30 Sudeste 0 -- -- 47
2019-04-17 00:00:00 12.8 10 Sudoeste 21 Sudoeste 0 -- -- 69
2019-04-16 23:00:00 14.4 4 Norte 6 Este 0 -- -- 57
2019-04-16 22:00:00 17 6 Sudeste 9 Este 0 -- -- 45
2019-04-16 21:00:00 18.4 5 Sur 11 Sur 0 -- -- 43
2019-04-16 20:00:00 20.5 7 Sur 22 Sudeste 0 -- -- 37
2019-04-16 19:00:00 21.5 15 Sudeste 29 Sur 0 -- -- 35
2019-04-16 18:00:00 22 15 Sur 33 Sur 0 -- -- 36
2019-04-16 17:00:00 21.1 16 Sudeste 38 Sur 0 -- -- 39
2019-04-16 16:00:00 21.1 12 Sur 30 Sur 0 -- -- 41
2019-04-16 15:00:00 19.8 18 Sur 33 Sur 0 -- -- 46
2019-04-16 14:00:00 19.1 19 Sur 37 Sur 0 -- -- 42
2019-04-16 13:00:00 17.9 15 Sur 27 Sur 0 -- -- 48
2019-04-16 12:00:00 15.8 6 Sudoeste 13 Sudoeste 0 -- -- 64
2019-04-16 11:00:00 14.2 5 Sur 12 Nordeste 0 -- -- 62
2019-04-16 10:00:00 12 9 Nordeste 15 Nordeste 0 -- -- 74
2019-04-16 09:00:00 9 9 Norte 14 Norte 0 -- -- 85
2019-04-16 08:00:00 6.3 6 Este 9 Este 0 -- -- 94
2019-04-16 07:00:00 6.7 5 Norte 9 Norte 0 -- -- 92
2019-04-16 06:00:00 6.7 3 Norte 5 Nordeste 0 -- -- 90
2019-04-16 05:00:00 8.2 0 Calma 13 Norte 0 -- -- 89
2019-04-16 04:00:00 8.8 7 Norte 13 Nordeste 0 -- -- 88
2019-04-16 03:00:00 9.8 7 Norte 14 Norte 0 -- -- 83
2019-04-16 02:00:00 10.4 8 Norte 20 Nordeste 0 -- -- 82
2019-04-16 01:00:00 11.1 8 Nordeste 18 Nordeste 0 -- -- 80
2019-04-16 00:00:00 10.5 6 Norte 12 Nordeste 0 -- -- 89
2019-04-15 23:00:00 11.9 6 Norte 13 Norte 0 -- -- 85
2019-04-15 22:00:00 12 6 Norte 13 Norte 0 -- -- 86
2019-04-15 21:00:00 13.6 6 Este 14 Nordeste 0 -- -- 77
2019-04-15 20:00:00 14.2 4 Este 16 Este 0 -- -- 78
2019-04-15 19:00:00 14.7 9 Este 16 Este 0 -- -- 76
2019-04-15 18:00:00 15.3 5 Noroeste 19 Sudoeste 0 -- -- 74
2019-04-15 17:00:00 13.6 11 Sudoeste 40 Sudoeste 0.4 -- -- 83
2019-04-15 16:00:00 17.3 24 Oeste 46 Oeste 0 -- -- 55
2019-04-15 15:00:00 20.6 16 Oeste 37 Sudoeste 0 -- -- 43
2019-04-15 14:00:00 20.5 21 Sudoeste 33 Sudoeste 0 -- -- 44
2019-04-15 13:00:00 19.1 18 Sudoeste 31 Sudoeste 0 -- -- 52
2019-04-15 12:00:00 17.7 14 Sudoeste 28 Sudoeste 0 -- -- 68
2019-04-15 11:00:00 17.6 15 Sur 25 Sudoeste 0 -- -- 72
2019-04-15 10:00:00 16.3 13 Sudoeste 21 Sudoeste 0 -- -- 77
2019-04-15 09:00:00 15 9 Sudoeste 21 Sudoeste 0 -- -- 84
2019-04-15 08:00:00 13.4 4 Oeste 8 Oeste 0 -- -- 89
2019-04-15 07:00:00 13.3 3 Noroeste 6 Oeste 0 -- -- 91
2019-04-15 06:00:00 13.5 0 Calma 7 Este 0 -- -- 90
2019-04-15 05:00:00 13.9 2 Noroeste 5 Este 0 -- -- 90
2019-04-15 04:00:00 13.9 2 Norte -- -- 0 -- -- 90
2019-04-15 03:00:00 13.6 2 Norte 5 Norte 0 -- -- 89
2019-04-15 02:00:00 13.6 3 Norte 3 Norte 0 -- -- 89
2019-04-15 01:00:00 14 0 Calma 4 Nordeste 0 -- -- 86
2019-04-15 00:00:00 15.6 2 Noroeste 5 Noroeste 0 -- -- 80
2019-04-14 23:00:00 16.5 0 Calma 5 Sudeste 0 -- -- 77
2019-04-14 22:00:00 18.5 0 Calma 5 Sudoeste 0 -- -- 71
2019-04-14 21:00:00 20.1 3 Sudoeste 10 Sudoeste 0 -- -- 66
2019-04-14 20:00:00 21.8 5 Sudoeste 17 Sur 0 -- -- 56
2019-04-14 19:00:00 23.7 13 Sudoeste 21 Sudoeste 0 -- -- 46
2019-04-14 18:00:00 24 10 Sudoeste 26 Sudoeste 0 -- -- 46
2019-04-14 17:00:00 23.4 10 Sudoeste 19 Sudoeste 0 -- -- 49
2019-04-14 16:00:00 22.4 9 Sudoeste 19 Sudoeste 0 -- -- 52
2019-04-14 15:00:00 22.3 11 Sudoeste 23 Sudoeste 0 -- -- 54
2019-04-14 14:00:00 22.1 6 Sur 20 Sudoeste 0 -- -- 55
2019-04-14 13:00:00 21.1 8 Oeste 18 Sudoeste 0 -- -- 56
2019-04-14 12:00:00 19.6 8 Sudoeste 14 Sudoeste 0 -- -- 59
2019-04-14 11:00:00 17 3 Oeste 7 Sudoeste 0 -- -- 68
2019-04-14 10:00:00 13.9 4 Sur 6 Sudoeste 0 -- -- 78
2019-04-14 09:00:00 10.7 2 Sur 5 Noroeste 0 -- -- 92
2019-04-14 08:00:00 9.2 0 Calma 5 Sudoeste 0 -- -- 92
2019-04-14 07:00:00 10.1 3 Sudoeste 5 Sudoeste 0 -- -- 93
2019-04-14 06:00:00 10.6 3 Norte 4 Nordeste 0 -- -- 91
2019-04-14 05:00:00 10.7 0 Calma 4 Este 0 -- -- 91
2019-04-14 04:00:00 10.8 3 Este 8 Este 0 -- -- 90
2019-04-14 03:00:00 10.6 4 Norte 6 Norte 0 -- -- 89
2019-04-14 02:00:00 12 3 Norte 6 Sur 0 -- -- 84
2019-04-14 01:00:00 13.4 3 Sur 10 Sudoeste 0 -- -- 82
2019-04-14 00:00:00 14.8 9 Sudoeste 12 Sudoeste 0 -- -- 74
2019-04-13 23:00:00 15.4 6 Sudoeste 12 Sudoeste 0 -- -- 62
2019-04-13 22:00:00 17.2 6 Sudoeste 12 Sudoeste 0 -- -- 49
2019-04-13 21:00:00 18.7 8 Oeste 21 Sudoeste 0 -- -- 40
2019-04-13 20:00:00 20.5 12 Oeste 31 Sudoeste 0 -- -- 36
2019-04-13 19:00:00 22.5 12 Oeste 22 Sudoeste 0 -- -- 33
2019-04-13 18:00:00 23.3 9 Sudoeste 27 Oeste 0 -- -- 31
2019-04-13 17:00:00 23 13 Sudoeste 23 Sur 0 -- -- 33
2019-04-13 16:00:00 22.5 11 Sudoeste 26 Sudoeste 0 -- -- 34
2019-04-13 15:00:00 21.9 6 Sur 21 Sudoeste 0 -- -- 36
2019-04-13 14:00:00 21.6 8 Oeste 19 Oeste 0 -- -- 30
2019-04-13 13:00:00 20.5 7 Oeste 10 Oeste 0 -- -- 31
2019-04-13 12:00:00 18.8 5 Nordeste 9 Norte 0 -- -- 41
2019-04-13 11:00:00 16.6 5 Norte 15 Norte 0 -- -- 49
2019-04-13 10:00:00 14.5 6 Norte 14 Norte 0 -- -- 53
2019-04-13 09:00:00 10 3 Nordeste 10 Este 0 -- -- 73
2019-04-13 08:00:00 9.3 6 Norte 11 Norte 0 -- -- 67
2019-04-13 07:00:00 9.1 9 Norte 15 Nordeste 0 -- -- 69
2019-04-13 06:00:00 9.5 8 Nordeste 12 Nordeste 0 -- -- 69
2019-04-13 05:00:00 9.6 8 Nordeste 15 Nordeste 0 -- -- 68
2019-04-13 04:00:00 7.3 4 Nordeste 9 Sudoeste 0 -- -- 78
2019-04-13 03:00:00 9.2 7 Sudoeste 15 Norte 0 -- -- 71
2019-04-13 02:00:00 11.3 7 Nordeste 14 Nordeste 0 -- -- 59
2019-04-13 01:00:00 10.7 4 Nordeste 9 Norte 0 -- -- 66
2019-04-13 00:00:00 11.3 3 Nordeste 12 Nordeste 0 -- -- 65
2019-04-12 23:00:00 12.2 6 Nordeste 11 Norte 0 -- -- 63
2019-04-12 22:00:00 13.9 8 Noroeste 11 Norte 0 -- -- 52
2019-04-12 21:00:00 17.2 8 Noroeste 12 Noroeste 0 -- -- 43
2019-04-12 20:00:00 20.5 3 Norte 9 Nordeste 0 -- -- 35
2019-04-12 19:00:00 20.9 3 Noroeste 14 Norte 0 -- -- 35
2019-04-12 18:00:00 20.2 3 Sur 15 Oeste 0 -- -- 35
2019-04-12 17:00:00 20.7 6 Nordeste 14 Sudoeste 0 -- -- 33
2019-04-12 16:00:00 20.3 6 Norte 18 Nordeste 0 -- -- 34
2019-04-12 15:00:00 19.2 6 Norte 21 Norte 0 -- -- 38
2019-04-12 14:00:00 18.5 7 Norte 19 Norte 0 -- -- 35
2019-04-12 13:00:00 17.3 10 Norte 19 Nordeste 0 -- -- 36
2019-04-12 12:00:00 15.9 4 Norte 10 Este 0 -- -- 42
2019-04-12 11:00:00 13.1 7 Nordeste 15 Nordeste 0 -- -- 54
2019-04-12 10:00:00 10 11 Nordeste 17 Nordeste 0 -- -- 64
2019-04-12 09:00:00 7.2 12 Norte 18 Nordeste 0 -- -- 73
2019-04-12 08:00:00 6.1 9 Nordeste 15 Nordeste 0 -- -- 75
2019-04-12 07:00:00 6.4 6 Nordeste 14 Nordeste 0 -- -- 74
2019-04-12 06:00:00 6.3 8 Nordeste 11 Nordeste 0 -- -- 75
2019-04-12 05:00:00 7.1 6 Nordeste 12 Nordeste 0 -- -- 72
2019-04-12 04:00:00 7.4 0 Calma 11 Norte 0 -- -- 70
2019-04-12 03:00:00 8.3 5 Nordeste 11 Norte 0 -- -- 66
2019-04-12 02:00:00 9 4 Nordeste 18 Norte 0 -- -- 64
2019-04-12 01:00:00 9.9 12 Norte 18 Norte 0 -- -- 60
2019-04-12 00:00:00 9.4 4 Norte 14 Norte 0 -- -- 64
2019-04-11 23:00:00 9.7 5 Norte 10 Este 0 -- -- 70
2019-04-11 22:00:00 11 8 Norte 17 Norte 0 -- -- 58
2019-04-11 21:00:00 14.2 12 Norte 22 Norte 0 -- -- 44
2019-04-11 20:00:00 16.1 10 Norte 26 Nordeste 0 -- -- 41
2019-04-11 19:00:00 17.5 15 Norte 26 Nordeste 0 -- -- 36
2019-04-11 18:00:00 18.1 15 Nordeste 27 Nordeste 0 -- -- 35
2019-04-11 17:00:00 17.8 18 Norte 30 Nordeste 0 -- -- 37
2019-04-11 16:00:00 18.2 12 Nordeste 37 Nordeste 0 -- -- 38
2019-04-11 15:00:00 17.5 12 Nordeste 25 Norte 0 -- -- 40
2019-04-11 14:00:00 16.5 15 Norte 27 Norte 0 -- -- 44
2019-04-11 13:00:00 15.3 18 Norte 28 Norte 0 -- -- 45
2019-04-11 12:00:00 14 15 Norte 27 Norte 0 -- -- 58
2019-04-11 11:00:00 12.2 16 Norte 27 Norte 0 -- -- 64
2019-04-11 10:00:00 10.4 11 Nordeste 25 Nordeste 0 -- -- 71
2019-04-11 09:00:00 8.2 15 Norte 27 Norte 0 -- -- 80
2019-04-11 08:00:00 7.1 14 Norte 25 Nordeste 0 -- -- 84
2019-04-11 07:00:00 7.2 13 Norte 20 Norte 0 -- -- 86
2019-04-11 06:00:00 7 9 Nordeste 16 Nordeste 0 -- -- 89
2019-04-11 05:00:00 6.6 9 Nordeste 13 Nordeste 0 -- -- 91
2019-04-11 04:00:00 6.1 3 Norte 8 Norte 0 -- -- 91
2019-04-11 03:00:00 6.2 3 Norte 10 Nordeste 0 -- -- 89
2019-04-11 02:00:00 6.9 4 Este 10 Nordeste 0 -- -- 88
2019-04-11 01:00:00 7.9 6 Este 18 Nordeste 0 -- -- 84
2019-04-11 00:00:00 9 13 Nordeste 19 Nordeste 0 -- -- 79
2019-04-10 23:00:00 9.7 12 Norte 34 Noroeste 0 -- -- 72
2019-04-10 22:00:00 8.6 19 Norte 30 Norte 0 -- -- 82
2019-04-10 21:00:00 8.2 11 Nordeste 36 Nordeste 0.6 -- -- 85
2019-04-10 20:00:00 10.9 23 Nordeste 44 Nordeste 0 -- -- 63
2019-04-10 19:00:00 16.3 12 Norte 30 Noroeste 0 -- -- 42
2019-04-10 18:00:00 17.2 17 Noroeste 38 Noroeste 0 -- -- 40
2019-04-10 17:00:00 17.3 18 Noroeste 34 Noroeste 0 -- -- 43
2019-04-10 16:00:00 16.4 16 Noroeste 28 Noroeste 0 -- -- 47
2019-04-10 15:00:00 15.3 10 Noroeste 28 Noroeste 0 -- -- 50
2019-04-10 14:00:00 14.2 6 Noroeste 16 Oeste 0 -- -- 53
2019-04-10 13:00:00 13.7 6 Nordeste 15 Este 0 -- -- 60
2019-04-10 12:00:00 12.2 7 Norte 16 Noroeste 0 -- -- 61
2019-04-10 11:00:00 11.8 7 Oeste 17 Oeste 0 -- -- 66
2019-04-10 10:00:00 9.5 0 Calma 12 Este 0 -- -- 74
2019-04-10 09:00:00 8.5 0 Calma 6 Oeste 0 -- -- 83
2019-04-10 08:00:00 8.5 4 Noroeste 13 Oeste 0 -- -- 76
2019-04-10 07:00:00 8.4 8 Oeste 13 Oeste 0 -- -- 74
2019-04-10 06:00:00 8.4 6 Oeste 17 Oeste 0 -- -- 76
2019-04-10 05:00:00 7.5 7 Oeste 15 Oeste 0 -- -- 83
2019-04-10 04:00:00 9.1 8 Oeste 15 Oeste 0 -- -- 76
2019-04-10 03:00:00 9.3 6 Oeste 15 Oeste 0 -- -- 71
2019-04-10 02:00:00 9.4 7 Oeste 17 Oeste 0 -- -- 72
2019-04-10 01:00:00 8.9 7 Oeste 18 Oeste 0 -- -- 72
2019-04-10 00:00:00 9.8 10 Oeste 24 Oeste 0 -- -- 68
2019-04-09 23:00:00 10.4 9 Noroeste 24 Oeste 0 -- -- 71
2019-04-09 22:00:00 11.4 8 Oeste 17 Oeste 0 -- -- 64
2019-04-09 21:00:00 11.5 5 Oeste 19 Noroeste 0 -- -- 68
2019-04-09 20:00:00 13 9 Noroeste 30 Noroeste 0 -- -- 60
2019-04-09 19:00:00 13.6 12 Oeste 36 Oeste 0 -- -- 60
2019-04-09 18:00:00 14.4 6 Oeste 18 Sudoeste 0.2 -- -- 60
2019-04-09 17:00:00 12.7 13 Noroeste 31 Sudoeste 0.4 -- -- 69
2019-04-09 16:00:00 11.8 5 Sudeste 18 Sur 0.4 -- -- 80
2019-04-09 15:00:00 14 10 Oeste 20 Sudoeste 0 -- -- 67
2019-04-09 14:00:00 12 5 Noroeste 21 Oeste 0.2 -- -- 75
2019-04-09 13:00:00 11.3 5 Oeste 17 Sudoeste 0 -- -- 74
2019-04-09 12:00:00 9.4 10 Oeste 21 Sudoeste 0.6 -- -- 89
2019-04-09 11:00:00 8.5 9 Sudoeste 23 Sudoeste 2 -- -- 93
2019-04-09 10:00:00 8.5 13 Sur 21 Sur 0 -- -- 93
2019-04-09 09:00:00 7.9 4 Sur 15 Sudoeste 0 -- -- 95
2019-04-09 08:00:00 7.6 6 Sudoeste 17 Sudoeste 0 -- -- 94
2019-04-09 07:00:00 7.6 8 Sudoeste 21 Sudoeste 0 -- -- 93
2019-04-09 06:00:00 7.5 7 Sur 13 Sur 0 -- -- 92
2019-04-09 05:00:00 7.2 5 Sudeste 12 Sudeste 0 -- -- 92
2019-04-09 04:00:00 7 4 Sudeste 8 Sudeste 0 -- -- 92
2019-04-09 03:00:00 6.9 4 Sudoeste 16 Sudoeste 0 -- -- 91
2019-04-09 02:00:00 6.5 11 Sudoeste 16 Sudoeste 0 -- -- 93
2019-04-09 01:00:00 6.9 4 Sudoeste 8 Sudoeste 0 -- -- 89
2019-04-09 00:00:00 8.1 5 Sudoeste 15 Oeste 0 -- -- 85
2019-04-08 23:00:00 9 9 Sudoeste 12 Sudoeste 0 -- -- 82
2019-04-08 22:00:00 10 0 Calma 8 Sudoeste 0 -- -- 78
2019-04-08 21:00:00 11.6 7 Sudoeste 18 Oeste 0 -- -- 71
2019-04-08 20:00:00 12.1 7 Sudoeste 22 Oeste 0 -- -- 72
2019-04-08 19:00:00 12.7 12 Sudoeste 41 Oeste 0.2 -- -- 71
2019-04-08 18:00:00 15.7 20 Sudoeste 41 Sudoeste 0 -- -- 50
2019-04-08 17:00:00 16.8 20 Sudoeste 39 Sudoeste 0 -- -- 48
2019-04-08 16:00:00 16.8 17 Oeste 33 Sudoeste 0 -- -- 45
2019-04-08 15:00:00 16 15 Sudoeste 26 Oeste 0.2 -- -- 51
2019-04-08 14:00:00 14 11 Sudoeste 18 Sudoeste 0 -- -- 62
2019-04-08 13:00:00 13.5 8 Sudoeste 15 Sudoeste 0 -- -- 69
2019-04-08 12:00:00 12.5 7 Sudoeste 19 Sudoeste 0 -- -- 77
2019-04-08 11:00:00 12.1 11 Sudoeste 21 Sudoeste 0 -- -- 83
2019-04-08 10:00:00 10.6 10 Sudoeste 19 Sudoeste 0 -- -- 93
2019-04-08 09:00:00 9.6 10 Sudoeste 18 Sudoeste 0 -- -- 95
2019-04-08 08:00:00 9.9 5 Sudoeste 17 Sudoeste 0 -- -- 95
2019-04-08 07:00:00 10.6 7 Sur 17 Sur 0 -- -- 97
2019-04-08 06:00:00 10.7 10 Sudoeste 23 Sur 0 -- -- 97
2019-04-08 05:00:00 10.6 12 Sur 30 Sur 1.8 -- -- 96
2019-04-08 04:00:00 10.3 15 Sur 23 Sur 1.2 -- -- 96
2019-04-08 03:00:00 10.3 7 Sudoeste 27 Sudoeste 0.2 -- -- 95
2019-04-08 02:00:00 10.3 9 Sur 21 Sudeste 0.2 -- -- 94
2019-04-08 01:00:00 10.3 8 Sur 15 Sur 0.2 -- -- 95
2019-04-08 00:00:00 10.6 7 Sur 19 Sur 0 -- -- 95
2019-04-07 23:00:00 10.7 10 Sur 22 Sudoeste 0 -- -- 95
2019-04-07 22:00:00 10.6 12 Sur 19 Sur 0 -- -- 96
2019-04-07 21:00:00 10 9 Sur 15 Sur 0.8 -- -- 96
2019-04-07 20:00:00 9.9 6 Sur 15 Sudeste 1 -- -- 95
2019-04-07 19:00:00 10.1 7 Sur 15 Sudoeste 0.8 -- -- 94
2019-04-07 18:00:00 10.2 9 Sudoeste 19 Sudoeste 0.4 -- -- 91
2019-04-07 17:00:00 10.9 4 Sudoeste 24 Sur 0 -- -- 82
2019-04-07 16:00:00 11.7 6 Sudeste 14 Sudoeste 0 -- -- 72
2019-04-07 15:00:00 11.9 6 Sudoeste 17 Sur 0 -- -- 71
2019-04-07 14:00:00 11.6 4 Sur 12 Nordeste 0 -- -- 70
2019-04-07 13:00:00 10.5 3 Este 8 Sur 0 -- -- 75
2019-04-07 12:00:00 9.4 0 Calma 5 Sur 0 -- -- 76
2019-04-07 11:00:00 8.4 2 Este 6 Nordeste 0 -- -- 83
2019-04-07 10:00:00 7.3 3 Este 5 Nordeste 0 -- -- 91
2019-04-07 09:00:00 6.4 0 Calma 3 Sudeste 0.4 -- -- 94
2019-04-07 08:00:00 6.3 0 Calma 3 Nordeste 0.2 -- -- 93
2019-04-07 07:00:00 6.4 3 Sudoeste 8 Oeste 0 -- -- 90
2019-04-07 06:00:00 6.2 5 Sudoeste 8 Sudoeste 0 -- -- 92
2019-04-07 05:00:00 6.2 5 Sudoeste 15 Sudoeste 0 -- -- 91
2019-04-07 04:00:00 6.2 7 Oeste 15 Sudoeste 0 -- -- 89
2019-04-07 03:00:00 6.4 7 Sudoeste 16 Sudoeste 0 -- -- 88
2019-04-07 02:00:00 6.6 5 Sudoeste 13 Sudoeste 0 -- -- 88
2019-04-07 01:00:00 6.8 6 Sudoeste 14 Sudoeste 0 -- -- 85
2019-04-07 00:00:00 7.1 5 Sudoeste 16 Sudoeste 0 -- -- 82
2019-04-06 23:00:00 7.3 9 Oeste 17 Sudoeste 0 -- -- 80
2019-04-06 22:00:00 7.4 6 Sudoeste 22 Sudoeste 0 -- -- 80
2019-04-06 21:00:00 8.4 8 Sudoeste 21 Sudoeste 0 -- -- 74
2019-04-06 20:00:00 9.5 9 Sudoeste 19 Sudoeste 0 -- -- 74
2019-04-06 19:00:00 8.9 9 Sudoeste 27 Oeste 0 -- -- 77
2019-04-06 18:00:00 7.7 20 Oeste 44 Sudoeste 1.4 -- -- 81
2019-04-06 17:00:00 11.1 26 Sudoeste 47 Oeste 0 -- -- 61
2019-04-06 16:00:00 10.8 19 Sudoeste 35 Sudoeste 0 -- -- 68
2019-04-06 15:00:00 10.4 20 Oeste 36 Sudoeste 0 -- -- 65
2019-04-06 14:00:00 9.5 19 Sudoeste 37 Sudoeste 0 -- -- 73
2019-04-06 13:00:00 8.1 18 Sudoeste 32 Sudoeste 0 -- -- 80
2019-04-06 12:00:00 7 19 Sudoeste 36 Sudoeste 0.6 -- -- 88
2019-04-06 11:00:00 6.9 16 Sudoeste 27 Sudoeste 0 -- -- 86
2019-04-06 10:00:00 6.3 11 Sudoeste 21 Sudoeste 0 -- -- 94
2019-04-06 09:00:00 5.6 8 Sudoeste 20 Sudoeste 1.4 -- -- 96
2019-04-06 08:00:00 5.4 11 Sur 17 Sudoeste 0.2 -- -- 95
2019-04-06 07:00:00 5 3 Sur 9 Sur 0 -- -- 95
2019-04-06 06:00:00 4.7 2 Sur 10 Sudoeste 0 -- -- 95
2019-04-06 05:00:00 4 4 Sur 9 Sur 0 -- -- 96
2019-04-06 04:00:00 3.5 0 Calma 4 Sur 0 -- -- 95
2019-04-06 03:00:00 3.6 3 Este 8 Sudoeste 0 -- -- 93
2019-04-06 02:00:00 4.4 7 Sudoeste 10 Sudoeste 0 -- -- 91
2019-04-06 01:00:00 4.3 5 Sur 10 Sudoeste 0 -- -- 93
2019-04-06 00:00:00 4.3 2 Sudoeste 16 Oeste 0 -- -- 90
2019-04-05 23:00:00 5.2 8 Oeste 20 Oeste 0 -- -- 84
2019-04-05 22:00:00 6.1 8 Oeste 18 Oeste 1 -- -- 84
2019-04-05 21:00:00 6.5 12 Oeste 31 Noroeste 2.2 -- -- 86
2019-04-05 20:00:00 9.2 16 Sudoeste 35 Sudoeste 0 -- -- 68
2019-04-05 19:00:00 10.3 18 Sudoeste 39 Sudoeste 0 -- -- 61
2019-04-05 18:00:00 11.3 17 Oeste 38 Sudoeste 0 -- -- 57
2019-04-05 17:00:00 10 8 Este 18 Este 0 -- -- 72
2019-04-05 16:00:00 9.4 4 Oeste 32 Noroeste 0 -- -- 72
2019-04-05 15:00:00 9.6 10 Oeste 27 Noroeste 0 -- -- 71
2019-04-05 14:00:00 7.3 13 Oeste 41 Oeste 0.2 -- -- 85
2019-04-05 13:00:00 8.7 13 Sudoeste 22 Sudoeste 0 -- -- 76
2019-04-05 12:00:00 7.9 5 Oeste 24 Oeste 0.2 -- -- 72
2019-04-05 11:00:00 6.6 12 Oeste 31 Sudoeste 0 -- -- 87
2019-04-05 10:00:00 6.8 15 Sudoeste 23 Sudoeste 0 -- -- 91
2019-04-05 09:00:00 6.9 9 Sudoeste 17 Sudoeste 0 -- -- 95
2019-04-05 08:00:00 6.9 6 Sur 20 Sudoeste 0 -- -- 95
2019-04-05 07:00:00 7.1 12 Sudoeste 30 Sur 2 -- -- 94
2019-04-05 06:00:00 7.1 15 Sur 25 Sur 0.2 -- -- 94
2019-04-05 05:00:00 7.1 15 Sur 33 Sur 0 -- -- 94
2019-04-05 04:00:00 6.8 16 Sur 32 Sudeste 0.4 -- -- 94
2019-04-05 03:00:00 6.6 14 Sur 23 Sur 1.4 -- -- 94
2019-04-05 02:00:00 6.6 7 Sur 16 Sur 1.4 -- -- 93
2019-04-05 01:00:00 6.9 5 Sur 13 Sur 0 -- -- 91
2019-04-05 00:00:00 7.1 4 Sur 8 Sudoeste 0.2 -- -- 89
2019-04-04 23:00:00 7.2 4 Sudoeste 18 Oeste 0.6 -- -- 89
2019-04-04 22:00:00 7.7 10 Oeste 31 Oeste 0.2 -- -- 81
2019-04-04 21:00:00 11.2 23 Sudoeste 42 Sudoeste 0 -- -- 59
2019-04-04 20:00:00 13.5 12 Sudoeste 30 Oeste 0 -- -- 32
2019-04-04 19:00:00 14.5 18 Sudoeste 31 Sudoeste 0 -- -- 30
2019-04-04 18:00:00 15.4 11 Sudoeste 30 Sudoeste 0 -- -- 26
2019-04-04 17:00:00 15.9 10 Oeste 27 Sudoeste 0 -- -- 26
2019-04-04 16:00:00 15.4 12 Sudoeste 27 Sur 0 -- -- 25
2019-04-04 15:00:00 15.3 13 Sur 24 Sur 0 -- -- 26
2019-04-04 14:00:00 14 7 Sudoeste 19 Oeste 0 -- -- 25
2019-04-04 13:00:00 12.7 5 Este 15 Nordeste 0 -- -- 34
2019-04-04 12:00:00 10.8 7 Nordeste 21 Nordeste 0 -- -- 41
2019-04-04 11:00:00 8.8 10 Nordeste 23 Norte 0 -- -- 49
2019-04-04 10:00:00 7 14 Norte 23 Norte 0 -- -- 54
2019-04-04 09:00:00 4.2 6 Norte 11 Norte 0 -- -- 66
2019-04-04 08:00:00 2.4 3 Este 12 Norte 0 -- -- 70
2019-04-04 07:00:00 2.8 5 Norte 12 Norte 0 -- -- 69
2019-04-04 06:00:00 3.5 8 Norte 13 Norte 0 -- -- 66
2019-04-04 05:00:00 4.2 7 Este 12 Este 0 -- -- 61
2019-04-04 04:00:00 5.7 8 Nordeste 19 Nordeste 0 -- -- 55
2019-04-04 03:00:00 6.1 3 Nordeste 19 Norte 0 -- -- 54
2019-04-04 02:00:00 7.4 8 Norte 18 Norte 0 -- -- 50
2019-04-04 01:00:00 7.3 7 Norte 21 Nordeste 0 -- -- 50
2019-04-04 00:00:00 8.8 10 Norte 23 Norte 0 -- -- 47
2019-04-03 23:00:00 9.4 10 Norte 24 Norte 0 -- -- 43
2019-04-03 22:00:00 10 12 Norte 29 Norte 0 -- -- 43
2019-04-03 21:00:00 10.8 14 Norte 37 Noroeste 0 -- -- 39
2019-04-03 20:00:00 13.1 16 Noroeste 51 Norte 0 -- -- 35
2019-04-03 19:00:00 14.5 17 Norte 36 Norte 0 -- -- 35
2019-04-03 18:00:00 15.1 18 Noroeste 34 Norte 0 -- -- 36
2019-04-03 17:00:00 15.7 22 Noroeste 37 Norte 0 -- -- 34
2019-04-03 16:00:00 15.7 19 Noroeste 32 Noroeste 0 -- -- 35
2019-04-03 15:00:00 15.3 14 Norte 29 Noroeste 0 -- -- 38
2019-04-03 14:00:00 14.7 19 Norte 33 Norte 0 -- -- 41
2019-04-03 13:00:00 13.7 18 Norte 35 Norte 0 -- -- 45
2019-04-03 12:00:00 12.9 19 Norte 31 Norte 0 -- -- 50
2019-04-03 11:00:00 11.9 19 Norte 31 Nordeste 0 -- -- 52
2019-04-03 10:00:00 10.5 15 Nordeste 24 Norte 0 -- -- 66
2019-04-03 09:00:00 7.6 5 Norte 12 Norte 0 -- -- 82
2019-04-03 08:00:00 7.2 9 Norte 13 Norte 0 -- -- 82
2019-04-03 07:00:00 7.8 5 Norte 15 Norte 0 -- -- 78
2019-04-03 06:00:00 9 8 Norte 12 Norte 0 -- -- 75
2019-04-03 05:00:00 8.2 6 Norte 12 Noroeste 0 -- -- 75
2019-04-03 04:00:00 8.5 8 Noroeste 11 Noroeste 0 -- -- 77
2019-04-03 03:00:00 9.9 7 Norte 10 Norte 0 -- -- 75
2019-04-03 02:00:00 11.1 5 Nordeste 10 Nordeste 0 -- -- 71
2019-04-03 01:00:00 11.8 3 Nordeste 11 Norte 0 -- -- 68
2019-04-03 00:00:00 13.9 5 Norte 19 Noroeste 0 -- -- 56
2019-04-02 23:00:00 14.2 8 Noroeste 19 Noroeste 0 -- -- 54
2019-04-02 22:00:00 15 5 Oeste 10 Sudoeste 0 -- -- 56
2019-04-02 21:00:00 16.6 6 Sudoeste 20 Sudoeste 0 -- -- 53
2019-04-02 20:00:00 19.6 11 Sudoeste 27 Sudoeste 0 -- -- 44
2019-04-02 19:00:00 20.7 17 Sudoeste 31 Sudoeste 0 -- -- 41
2019-04-02 18:00:00 21.4 9 Sur 21 Sudoeste 0.2 -- -- 38
2019-04-02 17:00:00 18.4 4 Oeste 20 Sur 0.2 -- -- 47
2019-04-02 16:00:00 21 10 Sur 25 Sudoeste 0 -- -- 42
2019-04-02 15:00:00 20 6 Oeste 16 Sudoeste 0 -- -- 44
2019-04-02 14:00:00 19 8 Oeste 14 Noroeste 0 -- -- 46
2019-04-02 13:00:00 17.8 4 Sur 9 Este 0 -- -- 53
2019-04-02 12:00:00 14.9 4 Nordeste 9 Norte 0 -- -- 71
2019-04-02 11:00:00 12.6 0 Calma 6 Sudeste 0 -- -- 83
2019-04-02 10:00:00 9.7 0 Calma 4 Este 0 -- -- 94
2019-04-02 09:00:00 9 0 Calma 7 Oeste 0 -- -- 97
2019-04-02 08:00:00 7.3 3 Oeste 6 Sur 0 -- -- 95
2019-04-02 07:00:00 8.4 3 Noroeste 5 Nordeste 0 -- -- 93
2019-04-02 06:00:00 9.5 3 Nordeste 9 Norte 0 -- -- 94
2019-04-02 05:00:00 9.5 3 Nordeste 4 Nordeste 0 -- -- 94
2019-04-02 04:00:00 9.3 0 Calma 6 Oeste 0 -- -- 94
2019-04-02 03:00:00 9.4 0 Calma 4 Nordeste 0 -- -- 92
2019-04-02 02:00:00 10 3 Nordeste 7 Nordeste 0 -- -- 90
2019-04-02 01:00:00 11.3 5 Nordeste 10 Nordeste 0 -- -- 88
2019-04-02 00:00:00 11 3 Norte 7 Norte 0 -- -- 90
2019-04-01 23:00:00 11.1 3 Norte 8 Noroeste 0 -- -- 91
2019-04-01 22:00:00 11.2 3 Noroeste 12 Norte 0 -- -- 87
2019-04-01 21:00:00 11.9 7 Norte 18 Noroeste 1.2 -- -- 84
2019-04-01 20:00:00 14.4 6 Norte 18 Nordeste 1 -- -- 72
2019-04-01 19:00:00 17.3 12 Sudoeste 18 Sudoeste 0 -- -- 57
2019-04-01 18:00:00 18.5 6 Sudoeste 19 Sudoeste 0 -- -- 52
2019-04-01 17:00:00 18.8 9 Sudoeste 24 Sudoeste 0 -- -- 49
2019-04-01 16:00:00 18.9 10 Sur 24 Sur 0 -- -- 47
2019-04-01 15:00:00 18.1 9 Sudoeste 22 Sur 0 -- -- 49
2019-04-01 14:00:00 16.9 12 Sur 22 Sudoeste 0 -- -- 57
2019-04-01 13:00:00 17.7 9 Sudoeste 17 Sudoeste 0 -- -- 53
2019-04-01 12:00:00 14.5 6 Sudoeste 10 Sudoeste 0 -- -- 62
2019-04-01 11:00:00 13.6 6 Oeste 10 Oeste 0 -- -- 65
2019-04-01 10:00:00 10.3 2 Norte 4 Nordeste 0 -- -- 84
2019-04-01 09:00:00 8.8 0 Calma 6 Nordeste 0 -- -- 90
2019-04-01 08:00:00 6.7 2 Sudeste 6 Nordeste 0 -- -- 91
2019-04-01 07:00:00 7 0 Calma 4 Nordeste 0 -- -- 89
2019-04-01 06:00:00 7.6 2 Este 8 Noroeste 0 -- -- 87
2019-04-01 05:00:00 8 0 Calma 5 Norte 0 -- -- 86
2019-04-01 04:00:00 9.6 2 Sudoeste 9 Noroeste 0 -- -- 80
2019-04-01 03:00:00 10.3 3 Noroeste 5 Este 0 -- -- 80
2019-04-01 02:00:00 11.2 4 Este 5 Este 0 -- -- 77
2019-04-01 01:00:00 12 0 Calma 15 Sudeste 0 -- -- 71
2019-04-01 00:00:00 13.4 11 Sudeste 21 Sudeste 0 -- -- 63
2019-03-31 23:00:00 13.6 11 Sudeste 21 Sudeste 0 -- -- 62
2019-03-31 22:00:00 13.9 12 Sudeste 21 Sudeste 0 -- -- 61
2019-03-31 21:00:00 14.5 9 Sur 16 Sur 0 -- -- 59
2019-03-31 20:00:00 17 3 Sudoeste 10 Sudoeste 0 -- -- 50
2019-03-31 19:00:00 17.5 6 Sur 19 Nordeste 0 -- -- 46
2019-03-31 18:00:00 18.7 10 Nordeste 20 Sudeste 0 -- -- 41
2019-03-31 17:00:00 21.1 6 Sudoeste 17 Sudeste 0 -- -- 36
2019-03-31 16:00:00 20.7 10 Este 27 Este 0 -- -- 31
2019-03-31 15:00:00 20.2 7 Sur 16 Sudoeste 0 -- -- 40
2019-03-31 14:00:00 18.8 5 Oeste 19 Oeste 0 -- -- 44
2019-03-31 13:00:00 16.8 5 Sudoeste 12 Sur 0 -- -- 47
2019-03-31 12:00:00 15.3 4 Oeste 9 Oeste 0 -- -- 52
2019-03-31 11:00:00 12.2 3 Sudeste 8 Norte 0 -- -- 60
2019-03-31 10:00:00 10.3 5 Norte 8 Norte 0 -- -- 66
2019-03-31 09:00:00 8.6 4 Este 6 Nordeste 0 -- -- 77
2019-03-31 08:00:00 8.3 3 Nordeste 8 Nordeste 0 -- -- 76
2019-03-31 07:00:00 8.6 5 Nordeste 9 Nordeste 0 -- -- 71
2019-03-31 06:00:00 9.1 5 Norte 13 Nordeste 0 -- -- 71
2019-03-31 05:00:00 8.9 6 Este 10 Este 0 -- -- 75
2019-03-31 03:00:00 10.9 3 Sur 22 Sur 0 -- -- 64
2019-03-31 01:00:00 12.3 5 Nordeste 10 Nordeste 0 -- -- 58
2019-03-31 00:00:00 13.2 6 Nordeste 14 Nordeste 0 -- -- 55
2019-03-30 23:00:00 12.5 8 Este 10 Norte 0 -- -- 61
2019-03-30 22:00:00 12.8 9 Norte 12 Norte 0 -- -- 58
2019-03-30 21:00:00 13.8 6 Noroeste 9 Noroeste 0 -- -- 50
2019-03-30 20:00:00 16.3 4 Oeste 12 Sur 0 -- -- 42
2019-03-30 19:00:00 18.5 5 Sur 22 Sur 0 -- -- 36
2019-03-30 18:00:00 20.3 13 Sur 22 Sur 0 -- -- 31
2019-03-30 17:00:00 21 12 Sur 23 Sudoeste 0 -- -- 30
2019-03-30 16:00:00 21 10 Sur 21 Sudeste 0 -- -- 30
2019-03-30 15:00:00 20.6 9 Oeste 20 Sur 0 -- -- 34
2019-03-30 14:00:00 19.8 8 Oeste 19 Oeste 0 -- -- 35
2019-03-30 13:00:00 18.3 4 Noroeste 12 Oeste 0 -- -- 37
2019-03-30 12:00:00 16.8 5 Sur 11 Oeste 0 -- -- 38
2019-03-30 11:00:00 14.1 5 Noroeste 10 Noroeste 0 -- -- 46
2019-03-30 10:00:00 11.9 3 Noroeste 8 Noroeste 0 -- -- 52
2019-03-30 09:00:00 8.8 3 Nordeste 8 Nordeste 0 -- -- 67
2019-03-30 08:00:00 3.8 3 Este 8 Sudoeste 0 -- -- 86
2019-03-30 07:00:00 3.1 4 Este 7 Este 0 -- -- 87
2019-03-30 06:00:00 3 4 Nordeste 6 Nordeste 0 -- -- 82
2019-03-30 05:00:00 3.4 4 Norte 9 Sudoeste 0 -- -- 83
2019-03-30 04:00:00 4.8 5 Sur 9 Este 0 -- -- 79
2019-03-30 03:00:00 6.7 5 Nordeste 9 Nordeste 0 -- -- 74
2019-03-30 02:00:00 6.5 6 Nordeste 8 Nordeste 0 -- -- 70
2019-03-30 01:00:00 6.6 3 Norte 5 Norte 0 -- -- 67
2019-03-30 00:00:00 7.5 4 Norte 5 Nordeste 0 -- -- 65
2019-03-29 23:00:00 8.9 2 Nordeste 6 Noroeste 0 -- -- 57
2019-03-29 22:00:00 11.6 5 Noroeste 9 Noroeste 0 -- -- 45
2019-03-29 21:00:00 13.9 3 Sudoeste 15 Sudoeste 0 -- -- 35
2019-03-29 20:00:00 15.9 6 Sur 18 Sur 0 -- -- 30
2019-03-29 19:00:00 18.4 10 Sur 24 Sur 0 -- -- 27
2019-03-29 18:00:00 19.5 17 Sur 31 Sur 0 -- -- 26
2019-03-29 17:00:00 20.5 16 Sur 36 Sur 0 -- -- 25
2019-03-29 16:00:00 21 16 Sur 28 Sur 0 -- -- 25
2019-03-29 15:00:00 20.8 15 Sur 32 Sur 0 -- -- 25
2019-03-29 14:00:00 19.9 13 Sur 27 Sur 0 -- -- 27
2019-03-29 13:00:00 18.8 5 Este 15 Sudoeste 0 -- -- 31
2019-03-29 12:00:00 17.4 5 Sur 21 Este 0 -- -- 37
2019-03-29 11:00:00 14.9 6 Noroeste 12 Norte 0 -- -- 38
2019-03-29 10:00:00 12.3 4 Norte 10 Norte 0 -- -- 44
2019-03-29 09:00:00 9 3 Norte 6 Nordeste 0 -- -- 64
2019-03-29 08:00:00 4.1 0 Calma 6 Este 0 -- -- 85
2019-03-29 07:00:00 4.2 2 Este 15 Este 0 -- -- 81
2019-03-29 06:00:00 5.5 5 Nordeste 10 Este 0 -- -- 75
2019-03-29 05:00:00 6 8 Este 13 Este 0 -- -- 75
2019-03-29 04:00:00 7 5 Nordeste 10 Nordeste 0 -- -- 71
2019-03-29 03:00:00 7.9 4 Norte 14 Nordeste 0 -- -- 66
2019-03-29 02:00:00 7.9 8 Nordeste 12 Este 0 -- -- 70
2019-03-29 01:00:00 8.3 6 Nordeste 11 Nordeste 0 -- -- 67
2019-03-29 00:00:00 8.4 5 Nordeste 9 Este 0 -- -- 66
2019-03-28 23:00:00 9.3 3 Norte 7 Norte 0 -- -- 57
2019-03-28 22:00:00 11.4 6 Norte 12 Noroeste 0 -- -- 49
2019-03-28 21:00:00 12.8 5 Noroeste 9 Sudeste 0 -- -- 44
2019-03-28 20:00:00 16.9 5 Sur 15 Sudeste 0 -- -- 28
2019-03-28 19:00:00 19.8 8 Sur 17 Sur 0 -- -- 25
2019-03-28 18:00:00 21.1 10 Sur 21 Sur 0 -- -- 22
2019-03-28 17:00:00 21.5 10 Sur 19 Sur 0 -- -- 23
2019-03-28 16:00:00 21.6 8 Sur 22 Sur 0 -- -- 22
2019-03-28 15:00:00 21.2 10 Sur 22 Sudoeste 0 -- -- 23
2019-03-28 14:00:00 20.7 4 Sur 16 Sudoeste 0 -- -- 25
2019-03-28 13:00:00 19.4 7 Sudoeste 20 Sur 0 -- -- 29
2019-03-28 12:00:00 18.1 5 Sur 12 Sudoeste 0 -- -- 31
2019-03-28 11:00:00 15 3 Norte 13 Nordeste 0 -- -- 38
2019-03-28 10:00:00 12.8 9 Nordeste 19 Nordeste 0 -- -- 39
2019-03-28 09:00:00 10.5 13 Norte 24 Nordeste 0 -- -- 43
2019-03-28 08:00:00 8.7 14 Norte 23 Norte 0 -- -- 45
2019-03-28 07:00:00 8.4 13 Nordeste 24 Nordeste 0 -- -- 45
2019-03-28 06:00:00 8.8 11 Nordeste 21 Nordeste 0 -- -- 45
2019-03-28 05:00:00 8.7 10 Nordeste 20 Nordeste 0 -- -- 46
2019-03-28 04:00:00 9.5 8 Nordeste 22 Nordeste 0 -- -- 45
2019-03-28 03:00:00 8.1 8 Nordeste 13 Nordeste 0 -- -- 58
2019-03-28 02:00:00 8.3 7 Nordeste 10 Nordeste 0 -- -- 59
2019-03-28 01:00:00 8.1 5 Nordeste 9 Nordeste 0 -- -- 60
2019-03-28 00:00:00 7.6 0 Calma 7 Nordeste 0 -- -- 76
2019-03-27 23:00:00 8.3 5 Nordeste 10 Norte 0 -- -- 74
2019-03-27 22:00:00 9.9 3 Nordeste 6 Noroeste 0 -- -- 63
2019-03-27 21:00:00 12.9 6 Noroeste 8 Noroeste 0 -- -- 51
2019-03-27 20:00:00 15.6 4 Sudoeste 9 Sur 0 -- -- 43
2019-03-27 19:00:00 19 7 Sur 19 Sudoeste 0 -- -- 32
2019-03-27 18:00:00 20 10 Sur 22 Sur 0 -- -- 30
2019-03-27 17:00:00 20.4 12 Sur 23 Sudoeste 0 -- -- 28
2019-03-27 16:00:00 21.2 9 Sur 18 Sur 0 -- -- 28
2019-03-27 15:00:00 20.5 7 Sudoeste 16 Sudeste 0 -- -- 26
2019-03-27 14:00:00 18.6 4 Noroeste 15 Oeste 0 -- -- 29
2019-03-27 13:00:00 17.7 5 Noroeste 11 Este 0 -- -- 30
2019-03-27 12:00:00 16.3 3 Este 10 Norte 0 -- -- 32
2019-03-27 11:00:00 14.1 8 Nordeste 17 Nordeste 0 -- -- 34
2019-03-27 10:00:00 11.7 11 Nordeste 22 Norte 0 -- -- 38
2019-03-27 09:00:00 9.1 10 Nordeste 18 Norte 0 -- -- 40
2019-03-27 08:00:00 7.4 10 Nordeste 20 Norte 0 -- -- 42
2019-03-27 07:00:00 7 6 Nordeste 12 Nordeste 0 -- -- 44
2019-03-27 06:00:00 8.5 8 Nordeste 17 Nordeste 0 -- -- 39
2019-03-27 05:00:00 9.1 5 Nordeste 17 Nordeste 0 -- -- 38
2019-03-27 04:00:00 10.4 4 Nordeste 24 Norte 0 -- -- 34
2019-03-27 03:00:00 11.1 12 Norte 23 Norte 0 -- -- 34
2019-03-27 02:00:00 11.8 12 Norte 26 Norte 0 -- -- 33
2019-03-27 01:00:00 12.5 13 Norte 22 Norte 0 -- -- 33
2019-03-27 00:00:00 13.6 14 Norte 26 Norte 0 -- -- 33
2019-03-26 23:00:00 14.7 13 Nordeste 24 Este 0 -- -- 32
2019-03-26 22:00:00 15.5 10 Norte 18 Norte 0 -- -- 32
2019-03-26 21:00:00 14.3 3 Norte 14 Sudeste 0 -- -- 45
2019-03-26 20:00:00 18.6 9 Sudeste 16 Sur 0 -- -- 30
2019-03-26 19:00:00 22.1 8 Sur 15 Sudoeste 0 -- -- 30
2019-03-26 18:00:00 22.9 7 Nordeste 15 Nordeste 0 -- -- 26
2019-03-26 17:00:00 22.6 5 Norte 21 Norte 0 -- -- 28
2019-03-26 16:00:00 21.8 12 Norte 23 Norte 0 -- -- 29
2019-03-26 15:00:00 20.9 12 Nordeste 21 Nordeste 0 -- -- 29
2019-03-26 14:00:00 19.4 10 Nordeste 20 Nordeste 0 -- -- 34
2019-03-26 13:00:00 17.2 6 Norte 21 Nordeste 0 -- -- 38
2019-03-26 12:00:00 15.7 12 Nordeste 19 Nordeste 0 -- -- 36
2019-03-26 11:00:00 13.6 8 Nordeste 22 Nordeste 0 -- -- 41
2019-03-26 10:00:00 10.8 13 Norte 27 Nordeste 0 -- -- 49
2019-03-26 09:00:00 8.6 15 Norte 32 Norte 0 -- -- 54
2019-03-26 08:00:00 6.9 16 Norte 33 Norte 0 -- -- 59
2019-03-26 07:00:00 6.5 14 Norte 26 Nordeste 0 -- -- 59
2019-03-26 06:00:00 6.9 14 Norte 25 Norte 0 -- -- 58
2019-03-26 05:00:00 7.9 14 Norte 26 Norte 0 -- -- 55
2019-03-26 04:00:00 9 9 Nordeste 28 Nordeste 0 -- -- 53
2019-03-26 03:00:00 9.7 17 Nordeste 31 Norte 0 -- -- 50
2019-03-26 02:00:00 10.7 18 Norte 35 Nordeste 0 -- -- 50
2019-03-26 01:00:00 11.7 18 Norte 34 Norte 0 -- -- 47
2019-03-26 00:00:00 12.3 17 Norte 37 Norte 0 -- -- 47
2019-03-25 23:00:00 13.5 21 Norte 39 Norte 0 -- -- 44
2019-03-25 22:00:00 15.2 24 Nordeste 42 Norte 0 -- -- 38
2019-03-25 21:00:00 16.6 24 Nordeste 39 Norte 0 -- -- 33
2019-03-25 20:00:00 17.8 19 Nordeste 34 Nordeste 0 -- -- 29
2019-03-25 19:00:00 19.9 21 Nordeste 37 Nordeste 0 -- -- 27
2019-03-25 18:00:00 21.7 19 Nordeste 38 Nordeste 0 -- -- 27
2019-03-25 17:00:00 22.5 21 Nordeste 34 Nordeste 0 -- -- 26
2019-03-25 16:00:00 23 20 Nordeste 31 Nordeste 0 -- -- 26
2019-03-25 15:00:00 22.9 10 Nordeste 19 Nordeste 0 -- -- 27
2019-03-25 14:00:00 22.1 4 Nordeste 13 Nordeste 0 -- -- 31
2019-03-25 13:00:00 20.4 5 Norte 12 Nordeste 0 -- -- 34
2019-03-25 12:00:00 18.7 4 Norte 12 Norte 0 -- -- 36
2019-03-25 11:00:00 16.7 5 Nordeste 14 Nordeste 0 -- -- 46
2019-03-25 10:00:00 14.4 12 Nordeste 23 Nordeste 0 -- -- 46
2019-03-25 09:00:00 12.6 13 Nordeste 22 Nordeste 0 -- -- 51
2019-03-25 08:00:00 10.8 10 Nordeste 23 Nordeste 0 -- -- 56
2019-03-25 07:00:00 11 9 Nordeste 17 Norte 0 -- -- 54
2019-03-25 06:00:00 11.4 9 Nordeste 17 Nordeste 0 -- -- 52
2019-03-25 05:00:00 11.8 7 Nordeste 18 Norte 0 -- -- 51
2019-03-25 04:00:00 12.6 13 Norte 23 Norte 0 -- -- 47
2019-03-25 03:00:00 12.5 9 Nordeste 19 Nordeste 0 -- -- 47
2019-03-25 02:00:00 12.4 12 Nordeste 23 Norte 0 -- -- 50
2019-03-25 01:00:00 10 8 Nordeste 12 Este 0 -- -- 69
2019-03-25 00:00:00 11.3 7 Norte 15 Norte 0 -- -- 63
2019-03-24 23:00:00 12.4 6 Nordeste 10 Norte 0 -- -- 59
2019-03-24 22:00:00 13.1 5 Nordeste 9 Nordeste 0 -- -- 54
2019-03-24 21:00:00 15.1 5 Nordeste 10 Oeste 0 -- -- 47
2019-03-24 20:00:00 17.8 8 Oeste 10 Oeste 0 -- -- 38
2019-03-24 19:00:00 21 6 Sudeste 18 Sur 0 -- -- 30
2019-03-24 18:00:00 22.3 12 Sur 28 Sudeste 0 -- -- 28
2019-03-24 17:00:00 22.7 17 Sudeste 31 Sudeste 0 -- -- 28
2019-03-24 16:00:00 23 19 Sudeste 40 Sudeste 0 -- -- 27
2019-03-24 15:00:00 23.1 19 Sudeste 40 Sudeste 0 -- -- 27
2019-03-24 14:00:00 23 18 Sudeste 32 Este 0 -- -- 28
2019-03-24 13:00:00 21.7 10 Este 21 Este 0 -- -- 31
2019-03-24 12:00:00 19.5 8 Nordeste 21 Norte 0 -- -- 34
2019-03-24 11:00:00 18 3 Norte 16 Nordeste 0 -- -- 36
2019-03-24 10:00:00 15.7 9 Norte 19 Norte 0 -- -- 49
2019-03-24 09:00:00 13 4 Nordeste 9 Este 0 -- -- 61
2019-03-24 08:00:00 9.1 5 Nordeste 19 Este 0 -- -- 78
2019-03-24 07:00:00 8.5 3 Este 11 Sudeste 0 -- -- 80
2019-03-24 06:00:00 9.5 4 Nordeste 12 Sur 0 -- -- 74
2019-03-24 05:00:00 10.8 5 Nordeste 10 Nordeste 0 -- -- 69
2019-03-24 04:00:00 10.9 5 Nordeste 10 Este 0 -- -- 71
2019-03-24 03:00:00 13.5 6 Nordeste 19 Este 0 -- -- 56
2019-03-24 02:00:00 16.3 10 Este 40 Sudeste 0 -- -- 42
2019-03-24 01:00:00 16.9 15 Sudeste 28 Sudeste 0 -- -- 40
2019-03-24 00:00:00 17.6 17 Sudeste 39 Sudeste 0 -- -- 38
2019-03-23 23:00:00 16.3 8 Sudeste 17 Sudeste 0 -- -- 42
2019-03-23 22:00:00 17 7 Sudeste 22 Este 0 -- -- 39
2019-03-23 21:00:00 17.8 12 Este 23 Este 0 -- -- 36
2019-03-23 20:00:00 18 8 Sudeste 17 Sudeste 0 -- -- 37
2019-03-23 19:00:00 19.6 6 Sudeste 25 Sudeste 0 -- -- 33
2019-03-23 18:00:00 21.6 12 Sudeste 27 Sudeste 0 -- -- 31
2019-03-23 17:00:00 21.8 9 Sudeste 34 Oeste 0 -- -- 33
2019-03-23 16:00:00 22.3 9 Sur 20 Sudoeste 0 -- -- 31
2019-03-23 15:00:00 21.6 9 Noroeste 21 Sudeste 0 -- -- 33
2019-03-23 14:00:00 20.5 5 Norte 12 Noroeste 0 -- -- 31
2019-03-23 13:00:00 19.7 3 Sur 10 Noroeste 0 -- -- 34
2019-03-23 12:00:00 17.4 3 Nordeste 9 Nordeste 0 -- -- 39
2019-03-23 11:00:00 14.9 5 Norte 12 Norte 0 -- -- 42
2019-03-23 10:00:00 11.4 10 Norte 15 Nordeste 0 -- -- 54
2019-03-23 09:00:00 8.6 7 Nordeste 16 Nordeste 0 -- -- 68
2019-03-23 08:00:00 5.3 5 Nordeste 14 Norte 0 -- -- 79
2019-03-23 07:00:00 5.3 5 Norte 14 Nordeste 0 -- -- 78
2019-03-23 06:00:00 5.3 8 Nordeste 13 Nordeste 0 -- -- 82
2019-03-23 05:00:00 5.6 4 Este 9 Nordeste 0 -- -- 79
2019-03-23 04:00:00 6.8 4 Nordeste 10 Este 0 -- -- 74
2019-03-23 03:00:00 9 5 Nordeste 11 Norte 0 -- -- 60
2019-03-23 02:00:00 8.5 9 Este 21 Nordeste 0 -- -- 68
2019-03-23 01:00:00 9.1 10 Nordeste 16 Nordeste 0 -- -- 70
2019-03-23 00:00:00 8.9 5 Nordeste 10 Norte 0 -- -- 70
2019-03-22 23:00:00 9 6 Nordeste 11 Nordeste 0 -- -- 70
2019-03-22 22:00:00 10.1 5 Nordeste 9 Noroeste 0 -- -- 64
2019-03-22 21:00:00 11.8 5 Noroeste 11 Noroeste 0 -- -- 56
2019-03-22 20:00:00 14.7 6 Sudoeste 9 Sur 0 -- -- 47
2019-03-22 19:00:00 17.7 6 Sur 15 Sur 0 -- -- 37
2019-03-22 18:00:00 18.9 8 Sur 17 Sur 0 -- -- 34
2019-03-22 17:00:00 19.2 9 Sur 19 Sur 0 -- -- 32
2019-03-22 16:00:00 19.2 12 Sur 29 Sur 0 -- -- 34
2019-03-22 15:00:00 19 11 Sudoeste 24 Sudoeste 0 -- -- 32
2019-03-22 14:00:00 18.5 8 Sudoeste 17 Sudoeste 0 -- -- 34
2019-03-22 13:00:00 17.2 5 Sur 13 Oeste 0 -- -- 35
2019-03-22 12:00:00 15.8 5 Oeste 11 Sur 0 -- -- 42
2019-03-22 11:00:00 13.8 2 Sudoeste 11 Nordeste 0 -- -- 42
2019-03-22 10:00:00 10.5 6 Nordeste 15 Nordeste 0 -- -- 57
2019-03-22 09:00:00 7.3 8 Nordeste 15 Nordeste 0 -- -- 72
2019-03-22 08:00:00 3.7 0 Calma 8 Este 0 -- -- 86
2019-03-22 07:00:00 4.3 7 Este 11 Nordeste 0 -- -- 83
2019-03-22 06:00:00 4.6 9 Este 13 Nordeste 0 -- -- 83
2019-03-22 05:00:00 5.2 5 Nordeste 8 Nordeste 0 -- -- 81
2019-03-22 04:00:00 6 6 Nordeste 10 Nordeste 0 -- -- 79
2019-03-22 03:00:00 6.9 7 Nordeste 9 Nordeste 0 -- -- 76
2019-03-22 02:00:00 6.9 8 Nordeste 9 Este 0 -- -- 78
2019-03-22 01:00:00 7.3 6 Este 9 Este 0 -- -- 77
2019-03-22 00:00:00 8.1 3 Nordeste 6 Nordeste 0 -- -- 72
2019-03-21 23:00:00 9.6 2 Norte 8 Nordeste 0 -- -- 62
2019-03-21 22:00:00 11.8 6 Oeste 8 Oeste 0 -- -- 52
2019-03-21 21:00:00 13.4 3 Sudoeste 8 Sur 0 -- -- 46
2019-03-21 20:00:00 13.9 5 Sur 12 Sur 0 -- -- 45
2019-03-21 19:00:00 15.7 9 Sur 17 Sur 0 -- -- 38
2019-03-21 18:00:00 18.1 7 Sudoeste 15 Sudoeste 0 -- -- 31
2019-03-21 17:00:00 18.3 10 Oeste 23 Sudoeste 0 -- -- 31
2019-03-21 16:00:00 18.2 11 Sudoeste 20 Sudoeste 0 -- -- 30
2019-03-21 15:00:00 17.8 8 Sur 20 Sur 0 -- -- 31
2019-03-21 14:00:00 17.5 8 Sudeste 23 Sur 0 -- -- 32
2019-03-21 13:00:00 17 9 Sudeste 19 Sur 0 -- -- 30
2019-03-21 12:00:00 15.2 4 Este 14 Este 0 -- -- 38
2019-03-21 11:00:00 12.4 3 Norte 11 Norte 0 -- -- 45
2019-03-21 10:00:00 10 7 Norte 13 Nordeste 0 -- -- 50
2019-03-21 09:00:00 7.9 9 Nordeste 19 Norte 0 -- -- 55
2019-03-21 08:00:00 6.1 10 Nordeste 21 Nordeste 0 -- -- 58
2019-03-21 07:00:00 5.9 9 Nordeste 18 Norte 0 -- -- 59
2019-03-21 06:00:00 6.7 12 Nordeste 19 Norte 0 -- -- 56
2019-03-21 05:00:00 6.5 8 Nordeste 16 Este 0 -- -- 63
2019-03-21 04:00:00 7.7 11 Nordeste 20 Nordeste 0 -- -- 55
2019-03-21 03:00:00 8.2 9 Nordeste 17 Norte 0 -- -- 53
2019-03-21 02:00:00 8.8 10 Norte 21 Norte 0 -- -- 50
2019-03-21 01:00:00 9.4 12 Norte 22 Norte 0 -- -- 50
2019-03-21 00:00:00 9.8 13 Norte 21 Norte 0 -- -- 49